Emporia, KS

1:45 PM CDT on August 30, 2015 (GMT -0500)
Timmerman School Area | | Change Station
CLOSE
Current Station
Personal Weather Station
Location: Emporia, KS
Elevation: 1214 ft
Nearby Weather Stations

Elev 1214 ft 38.43 °N, 96.22 °W | Updated 7 seconds ago

Partly Cloudy
Partly Cloudy
78.3 °F
Feels Like 78 °F
N
5.8
Wind Variable Wind from NE
Gusts 7.4 mph

Today
High -- | Low -- °F
--% Chance of Precip.
Yesterday
High -- | Low -- °F
Precip. -- in
6:52 AM 7:57 PM
Full, 98% visible
Pressure 30.03 in
Visibility 9.0 miles
Clouds Few 1900 ft
Few 2500 ft
Heat Index 78 °F
Dew Point 43 °F
Humidity 28%
Rainfall 0.01 in
Snow Depth Not available.
UV 9 out of 12
Pollen 10.50 out of 12
Air Quality Not available.
Flu Activity Not available.
METAR KEMP 301753Z AUTO 04005KT 9SM FEW019 FEW025 25/21 A3004 RMK AO2 SLP167 T02500206 10256 20178 58009
Pressure 30.03 in
Visibility 9.0 miles
Clouds Few 1900 ft
Few 2500 ft
Heat Index 78 °F
Dew Point 43 °F
Humidity 28%
Rainfall 0.01 in
Snow Depth Not available.
UV 9 out of 12
Pollen 10.50 out of 12
Air Quality Not available.
Flu Activity Not available.
METAR KEMP 301753Z AUTO 04005KT 9SM FEW019 FEW025 25/21 A3004 RMK AO2 SLP167 T02500206 10256 20178 58009

10-Day Weather Forecast

×

Almanac

Astronomy

Aug. 30, 2015 Rise Set
Actual Time
Civil Twilight
Nautical Twilight
Astronomical Twilight
Moon
Length of Visible Light
Length of Day
Tomorrow will be .
, % of the Moon is Illuminated

Today's Extremes

State Highs State Lows

Community

WunderPhotos

Upload Photos

1,851,031 photos uploaded!

WunderBlogs® & News

Nearby

Air Quality

  Air Quality AQ Index Pollutant
Not available.

Snow Depth

Station Depth Elevation

Earthquake Activity

City Distance Mag. Time & Date
Minimum magnitude displayed is 2.5.

Coastal Water Temperatures

Place Temperature

Stations

Nearby Weather Stations

Station Location Temp. Windchill Dew Point Humidity Wind Precip. Elev Updated Type